sensor_id;sensor_type;location;lat;lon;timestamp;pressure;altitude;pressure_sealevel;temperature;humidity
50652;BME280;66928;52.086;5.240;2023-01-29T06:25:22;102692.0;;;5.5;68.28
50652;BME280;66928;52.086;5.240;2023-01-29T06:26:58;102692.0;;;5.5;68.41
50652;BME280;66928;52.086;5.240;2023-01-29T06:30:12;102691.00000000001;;;5.47;68.22
50652;BME280;66928;52.086;5.240;2023-01-29T06:31:48;102683.99999999999;;;5.45;68.25
50652;BME280;66928;52.086;5.240;2023-01-29T06:33:25;102675.0;;;5.55;68.22
50652;BME280;66928;52.086;5.240;2023-01-29T06:36:40;102674.0;;;5.54;68.05
50652;BME280;66928;52.086;5.240;2023-01-29T06:38:17;102673.0;;;5.51;67.84
50652;BME280;66928;52.086;5.240;2023-01-29T06:39:53;102682.0;;;5.5;67.84
50652;BME280;66928;52.086;5.240;2023-01-29T06:43:06;102684.99999999999;;;5.5;67.98
50652;BME280;66928;52.086;5.240;2023-01-29T06:44:43;102682.0;;;5.57;67.6
50652;BME280;66928;52.086;5.240;2023-01-29T06:46:20;102678.0;;;5.5;67.75
50652;BME280;66928;52.086;5.240;2023-01-29T06:47:57;102674.0;;;5.57;67.69
50652;BME280;66928;52.086;5.240;2023-01-29T06:51:10;102681.0;;;5.55;67.77
50652;BME280;66928;52.086;5.240;2023-01-29T06:52:47;102680.0;;;5.54;67.55
50652;BME280;66928;52.086;5.240;2023-01-29T06:54:23;102678.0;;;5.65;67.31
50652;BME280;66928;52.086;5.240;2023-01-29T06:57:36;102680.0;;;5.65;67.44
50652;BME280;66928;52.086;5.240;2023-01-29T06:59:14;102684.99999999999;;;5.6;67.08
50652;BME280;66928;52.086;5.240;2023-01-29T07:00:51;102686.99999999999;;;5.61;66.95
50652;BME280;66928;52.086;5.240;2023-01-29T07:02:28;102684.99999999999;;;5.53;67.03
50652;BME280;66928;52.086;5.240;2023-01-29T07:05:41;102689.00000000001;;;5.52;66.97
50652;BME280;66928;52.086;5.240;2023-01-29T07:07:18;102683.0;;;5.63;66.58
50652;BME280;66928;52.086;5.240;2023-01-29T07:08:54;102681.0;;;5.67;66.7
50652;BME280;66928;52.086;5.240;2023-01-29T07:12:08;102678.0;;;5.53;66.97
50652;BME280;66928;52.086;5.240;2023-01-29T07:13:45;102673.0;;;5.48;67.1
50652;BME280;66928;52.086;5.240;2023-01-29T07:15:21;102672.0;;;5.52;67.5
50652;BME280;66928;52.086;5.240;2023-01-29T07:18:36;102671.0;;;5.51;67.7
50652;BME280;66928;52.086;5.240;2023-01-29T07:20:12;102673.0;;;5.52;67.84
50652;BME280;66928;52.086;5.240;2023-01-29T07:21:48;102679.0;;;5.45;68.39
50652;BME280;66928;52.086;5.240;2023-01-29T07:23:24;102678.0;;;5.37;68.69
50652;BME280;66928;52.086;5.240;2023-01-29T07:26:39;102680.0;;;5.58;68.47
50652;BME280;66928;52.086;5.240;2023-01-29T07:28:15;102678.0;;;5.43;68.95
50652;BME280;66928;52.086;5.240;2023-01-29T07:29:52;102681.0;;;5.55;68.74
50652;BME280;66928;52.086;5.240;2023-01-29T07:33:08;102680.0;;;5.46;68.86
50652;BME280;66928;52.086;5.240;2023-01-29T07:34:45;102679.0;;;5.63;68.34
50652;BME280;66928;52.086;5.240;2023-01-29T07:36:23;102674.0;;;5.64;68.17
50652;BME280;66928;52.086;5.240;2023-01-29T07:38:00;102670.0;;;5.6;68.05
50652;BME280;66928;52.086;5.240;2023-01-29T07:41:12;102677.0;;;5.45;68.39
50652;BME280;66928;52.086;5.240;2023-01-29T07:42:49;102674.0;;;5.56;67.87
50652;BME280;66928;52.086;5.240;2023-01-29T07:44:25;102676.0;;;5.66;67.88
50652;BME280;66928;52.086;5.240;2023-01-29T07:47:39;102681.0;;;5.64;68.08
50652;BME280;66928;52.086;5.240;2023-01-29T07:49:15;102673.0;;;5.48;68.25
50652;BME280;66928;52.086;5.240;2023-01-29T07:50:53;102667.0;;;5.5;68.31
50652;BME280;66928;52.086;5.240;2023-01-29T07:54:09;102661.99999999999;;;5.57;68.24
50652;BME280;66928;52.086;5.240;2023-01-29T07:55:45;102657.0;;;5.59;67.8
50652;BME280;66928;52.086;5.240;2023-01-29T07:57:22;102663.00000000001;;;5.66;67.77
50652;BME280;66928;52.086;5.240;2023-01-29T07:58:59;102647.0;;;5.58;67.83
50652;BME280;66928;52.086;5.240;2023-01-29T08:02:13;102646.0;;;5.63;67.97
50652;BME280;66928;52.086;5.240;2023-01-29T08:03:50;102647.0;;;5.68;67.42
50652;BME280;66928;52.086;5.240;2023-01-29T08:05:28;102648.0;;;5.71;67.27
50652;BME280;66928;52.086;5.240;2023-01-29T08:08:42;102642.0;;;5.76;67.11
50652;BME280;66928;52.086;5.240;2023-01-29T08:10:19;102640.00000000001;;;5.7;67.02
50652;BME280;66928;52.086;5.240;2023-01-29T08:11:56;102640.00000000001;;;5.66;67.49
50652;BME280;66928;52.086;5.240;2023-01-29T08:13:33;102632.0;;;5.74;66.84
50652;BME280;66928;52.086;5.240;2023-01-29T08:16:48;102629.0;;;5.8;66.66
50652;BME280;66928;52.086;5.240;2023-01-29T08:18:24;102632.0;;;5.8;66.83
50652;BME280;66928;52.086;5.240;2023-01-29T08:20:02;102632.0;;;5.85;66.94
50652;BME280;66928;52.086;5.240;2023-01-29T08:23:15;102630.0;;;5.69;66.56
50652;BME280;66928;52.086;5.240;2023-01-29T08:24:52;102629.0;;;5.75;66.8
50652;BME280;66928;52.086;5.240;2023-01-29T08:26:29;102629.0;;;5.68;66.98
50652;BME280;66928;52.086;5.240;2023-01-29T08:29:42;102630.0;;;5.67;66.84
50652;BME280;66928;52.086;5.240;2023-01-29T08:31:19;102633.0;;;5.77;66.56
50652;BME280;66928;52.086;5.240;2023-01-29T08:32:56;102633.0;;;5.75;66.63
50652;BME280;66928;52.086;5.240;2023-01-29T08:34:33;102630.0;;;5.85;66.37
50652;BME280;66928;52.086;5.240;2023-01-29T08:37:55;102629.0;;;5.73;66.52
50652;BME280;66928;52.086;5.240;2023-01-29T08:39:32;102630.0;;;5.78;66.52
50652;BME280;66928;52.086;5.240;2023-01-29T08:41:08;102620.0;;;5.83;66.47
50652;BME280;66928;52.086;5.240;2023-01-29T08:44:21;102617.0;;;5.91;66.0
50652;BME280;66928;52.086;5.240;2023-01-29T08:45:58;102617.0;;;5.95;66.06
50652;BME280;66928;52.086;5.240;2023-01-29T08:47:35;102613.00000000001;;;6.03;65.74
50652;BME280;66928;52.086;5.240;2023-01-29T08:49:11;102609.99999999999;;;5.89;65.99
50652;BME280;66928;52.086;5.240;2023-01-29T08:52:24;102607.0;;;5.87;65.94
50652;BME280;66928;52.086;5.240;2023-01-29T08:54:00;102606.0;;;5.92;65.95
50652;BME280;66928;52.086;5.240;2023-01-29T08:55:38;102605.0;;;5.81;66.25
50652;BME280;66928;52.086;5.240;2023-01-29T08:58:52;102602.0;;;5.81;66.05
50652;BME280;66928;52.086;5.240;2023-01-29T09:00:29;102600.0;;;5.76;65.99
50652;BME280;66928;52.086;5.240;2023-01-29T09:02:05;102600.0;;;5.84;65.75
50652;BME280;66928;52.086;5.240;2023-01-29T09:05:19;102606.0;;;5.88;65.44
50652;BME280;66928;52.086;5.240;2023-01-29T09:06:57;102608.0;;;5.61;66.27
50652;BME280;66928;52.086;5.240;2023-01-29T09:08:34;102605.0;;;5.7;66.37
50652;BME280;66928;52.086;5.240;2023-01-29T09:10:11;102600.0;;;5.76;66.34
50652;BME280;66928;52.086;5.240;2023-01-29T09:13:24;102603.0;;;5.8;65.98
50652;BME280;66928;52.086;5.240;2023-01-29T09:15:01;102602.0;;;5.77;65.97
50652;BME280;66928;52.086;5.240;2023-01-29T09:16:38;102606.0;;;5.62;66.33
50652;BME280;66928;52.086;5.240;2023-01-29T09:19:53;102609.99999999999;;;5.58;66.41
50652;BME280;66928;52.086;5.240;2023-01-29T09:21:30;102606.0;;;5.72;66.3
50652;BME280;66928;52.086;5.240;2023-01-29T09:23:07;102607.0;;;5.57;66.44
50652;BME280;66928;52.086;5.240;2023-01-29T09:24:44;102599.0;;;5.62;66.33
50652;BME280;66928;52.086;5.240;2023-01-29T09:27:58;102603.0;;;5.79;65.99
50652;BME280;66928;52.086;5.240;2023-01-29T09:29:36;102604.0;;;5.8;65.97
50652;BME280;66928;52.086;5.240;2023-01-29T09:31:12;102603.0;;;5.8;65.94
50652;BME280;66928;52.086;5.240;2023-01-29T09:34:26;102605.0;;;5.88;65.87
50652;BME280;66928;52.086;5.240;2023-01-29T09:36:03;102604.0;;;5.9;65.61
50652;BME280;66928;52.086;5.240;2023-01-29T09:37:39;102607.0;;;5.87;65.5
50652;BME280;66928;52.086;5.240;2023-01-29T09:40:58;102608.0;;;5.91;65.3
50652;BME280;66928;52.086;5.240;2023-01-29T09:42:45;102613.00000000001;;;6.05;65.42
50652;BME280;66928;52.086;5.240;2023-01-29T09:44:37;102607.0;;;6.1;65.5
50652;BME280;66928;52.086;5.240;2023-01-29T09:46:32;102606.0;;;6.13;64.85
50652;BME280;66928;52.086;5.240;2023-01-29T09:48:13;102608.0;;;6.15;64.74
50652;BME280;66928;52.086;5.240;2023-01-29T09:49:51;102605.0;;;6.07;64.78
50652;BME280;66928;52.086;5.240;2023-01-29T09:53:19;102608.0;;;6.15;64.8
50652;BME280;66928;52.086;5.240;2023-01-29T09:55:03;102604.0;;;6.06;64.87
50652;BME280;66928;52.086;5.240;2023-01-29T09:56:44;102603.0;;;6.08;64.94
50652;BME280;66928;52.086;5.240;2023-01-29T09:58:25;102602.0;;;5.83;65.73
50652;BME280;66928;52.086;5.240;2023-01-29T10:01:48;102600.0;;;5.79;65.85
50652;BME280;66928;52.086;5.240;2023-01-29T10:03:43;102600.0;;;5.72;66.24
50652;BME280;66928;52.086;5.240;2023-01-29T10:05:34;102594.0;;;5.91;65.98
50652;BME280;66928;52.086;5.240;2023-01-29T10:07:39;102598.0;;;5.92;65.44
50652;BME280;66928;52.086;5.240;2023-01-29T10:10:02;102596.0;;;6.06;65.62
50652;BME280;66928;52.086;5.240;2023-01-29T10:12:00;102597.0;;;6.14;65.25
50652;BME280;66928;52.086;5.240;2023-01-29T10:13:53;102597.0;;;6.02;65.34
50652;BME280;66928;52.086;5.240;2023-01-29T10:15:46;102594.0;;;5.99;65.28
50652;BME280;66928;52.086;5.240;2023-01-29T10:17:38;102595.0;;;6.05;65.33
50652;BME280;66928;52.086;5.240;2023-01-29T10:19:48;102590.00000000001;;;6.03;65.33
50652;BME280;66928;52.086;5.240;2023-01-29T10:23:06;102594.0;;;6.17;65.14
50652;BME280;66928;52.086;5.240;2023-01-29T10:24:56;102592.0;;;6.2;65.06
50652;BME280;66928;52.086;5.240;2023-01-29T10:26:37;102592.0;;;6.12;65.1
50652;BME280;66928;52.086;5.240;2023-01-29T10:28:17;102588.00000000001;;;6.13;65.33
50652;BME280;66928;52.086;5.240;2023-01-29T10:29:55;102582.0;;;6.13;65.13
50652;BME280;66928;52.086;5.240;2023-01-29T10:33:24;102579.0;;;6.05;65.66
50652;BME280;66928;52.086;5.240;2023-01-29T10:35:12;102577.0;;;6.09;65.31
50652;BME280;66928;52.086;5.240;2023-01-29T10:36:58;102569.0;;;6.12;65.47
50652;BME280;66928;52.086;5.240;2023-01-29T10:38:41;102567.0;;;6.21;65.06
50652;BME280;66928;52.086;5.240;2023-01-29T10:40:22;102565.00000000001;;;5.89;65.7
50652;BME280;66928;52.086;5.240;2023-01-29T10:44:03;102564.00000000001;;;6.03;65.48
50652;BME280;66928;52.086;5.240;2023-01-29T10:45:52;102565.00000000001;;;5.92;65.87
50652;BME280;66928;52.086;5.240;2023-01-29T10:48:34;102559.99999999999;;;5.89;66.03
50652;BME280;66928;52.086;5.240;2023-01-29T10:50:41;102550.0;;;5.73;66.44
50652;BME280;66928;52.086;5.240;2023-01-29T10:52:31;102552.0;;;5.94;65.99
50652;BME280;66928;52.086;5.240;2023-01-29T10:54:28;102545.0;;;5.9;65.98
50652;BME280;66928;52.086;5.240;2023-01-29T10:56:22;102539.00000000001;;;5.88;66.05
50652;BME280;66928;52.086;5.240;2023-01-29T10:58:13;102533.99999999999;;;5.89;66.3
50652;BME280;66928;52.086;5.240;2023-01-29T11:01:44;102533.0;;;6.1;66.03
50652;BME280;66928;52.086;5.240;2023-01-29T11:03:23;102525.0;;;6.01;66.03
50652;BME280;66928;52.086;5.240;2023-01-29T11:06:37;102521.0;;;5.89;66.37
50652;BME280;66928;52.086;5.240;2023-01-29T11:08:17;102513.00000000001;;;5.85;66.7
50652;BME280;66928;52.086;5.240;2023-01-29T11:10:01;102518.0;;;6.07;66.19
50652;BME280;66928;52.086;5.240;2023-01-29T11:11:40;102517.0;;;5.85;66.62
50652;BME280;66928;52.086;5.240;2023-01-29T11:15:17;102515.00000000001;;;6.1;66.44
50652;BME280;66928;52.086;5.240;2023-01-29T11:16:55;102509.99999999999;;;5.89;66.49
50652;BME280;66928;52.086;5.240;2023-01-29T11:18:49;102505.0;;;6.1;66.09
50652;BME280;66928;52.086;5.240;2023-01-29T11:20:30;102505.0;;;6.15;66.3
50652;BME280;66928;52.086;5.240;2023-01-29T11:22:13;102503.0;;;6.46;65.41
50652;BME280;66928;52.086;5.240;2023-01-29T11:25:51;102506.0;;;6.34;65.49
50652;BME280;66928;52.086;5.240;2023-01-29T11:27:32;102511.99999999999;;;6.37;65.62
50652;BME280;66928;52.086;5.240;2023-01-29T11:29:29;102505.0;;;6.36;65.55
50652;BME280;66928;52.086;5.240;2023-01-29T11:31:21;102499.0;;;6.53;65.17
50652;BME280;66928;52.086;5.240;2023-01-29T11:33:10;102507.0;;;6.4;65.53
50652;BME280;66928;52.086;5.240;2023-01-29T11:34:58;102504.0;;;6.2;66.12
50652;BME280;66928;52.086;5.240;2023-01-29T11:36:39;102499.0;;;6.31;65.97
50652;BME280;66928;52.086;5.240;2023-01-29T11:40:05;102501.0;;;6.42;65.86
50652;BME280;66928;52.086;5.240;2023-01-29T11:42:04;102497.0;;;6.44;65.69
50652;BME280;66928;52.086;5.240;2023-01-29T11:43:41;102488.00000000001;;;6.51;65.49
50652;BME280;66928;52.086;5.240;2023-01-29T11:45:24;102491.00000000001;;;6.34;65.75
50652;BME280;66928;52.086;5.240;2023-01-29T11:47:11;102488.00000000001;;;6.27;66.02
50652;BME280;66928;52.086;5.240;2023-01-29T11:50:33;102481.0;;;6.25;66.11
50652;BME280;66928;52.086;5.240;2023-01-29T11:52:10;102476.0;;;6.36;66.3
50652;BME280;66928;52.086;5.240;2023-01-29T11:53:52;102480.0;;;6.19;66.52
50652;BME280;66928;52.086;5.240;2023-01-29T11:55:34;102474.0;;;6.24;66.47
50652;BME280;66928;52.086;5.240;2023-01-29T11:59:25;102473.0;;;6.23;66.55
50652;BME280;66928;52.086;5.240;2023-01-29T12:01:08;102470.0;;;6.09;66.88
50652;BME280;66928;52.086;5.240;2023-01-29T12:02:47;102469.0;;;6.07;67.34
50652;BME280;66928;52.086;5.240;2023-01-29T12:04:29;102465.00000000001;;;6.16;67.13
50652;BME280;66928;52.086;5.240;2023-01-29T12:06:07;102456.0;;;6.19;67.35
50652;BME280;66928;52.086;5.240;2023-01-29T12:07:55;102450.0;;;6.24;67.37
50652;BME280;66928;52.086;5.240;2023-01-29T12:11:14;102448.0;;;6.14;67.39
50652;BME280;66928;52.086;5.240;2023-01-29T12:13:03;102449.0;;;6.31;67.3
50652;BME280;66928;52.086;5.240;2023-01-29T12:15:08;102443.0;;;6.33;67.16
50652;BME280;66928;52.086;5.240;2023-01-29T12:17:17;102433.99999999999;;;6.28;67.48
50652;BME280;66928;52.086;5.240;2023-01-29T12:19:03;102429.0;;;6.32;67.53
50652;BME280;66928;52.086;5.240;2023-01-29T12:20:45;102421.0;;;6.11;67.94
50652;BME280;66928;52.086;5.240;2023-01-29T12:24:29;102414.00000000001;;;6.28;67.63
50652;BME280;66928;52.086;5.240;2023-01-29T12:26:12;102414.00000000001;;;6.28;67.8
50652;BME280;66928;52.086;5.240;2023-01-29T12:27:55;102411.99999999999;;;6.46;67.19
50652;BME280;66928;52.086;5.240;2023-01-29T12:29:41;102405.0;;;6.4;67.47
50652;BME280;66928;52.086;5.240;2023-01-29T12:31:27;102400.0;;;6.23;68.19
50652;BME280;66928;52.086;5.240;2023-01-29T12:33:13;102398.0;;;6.4;67.52
50652;BME280;66928;52.086;5.240;2023-01-29T12:36:47;102395.0;;;6.58;66.94
50652;BME280;66928;52.086;5.240;2023-01-29T12:38:26;102393.0;;;6.48;67.36
50652;BME280;66928;52.086;5.240;2023-01-29T12:40:10;102389.0;;;6.44;67.72
50652;BME280;66928;52.086;5.240;2023-01-29T12:41:51;102383.0;;;6.53;67.55
50652;BME280;66928;52.086;5.240;2023-01-29T12:43:36;102381.0;;;6.49;67.59
50652;BME280;66928;52.086;5.240;2023-01-29T12:46:57;102378.0;;;6.47;67.97
50652;BME280;66928;52.086;5.240;2023-01-29T12:48:38;102368.0;;;6.48;68.08
50652;BME280;66928;52.086;5.240;2023-01-29T12:50:19;102371.0;;;6.29;68.75
50652;BME280;66928;52.086;5.240;2023-01-29T12:52:03;102359.0;;;6.26;69.05
50652;BME280;66928;52.086;5.240;2023-01-29T12:55:31;102359.0;;;6.24;69.19
50652;BME280;66928;52.086;5.240;2023-01-29T12:57:19;102355.0;;;6.17;69.59
50652;BME280;66928;52.086;5.240;2023-01-29T12:59:00;102345.0;;;6.36;69.02
50652;BME280;66928;52.086;5.240;2023-01-29T13:00:42;102339.0;;;6.21;69.45
50652;BME280;66928;52.086;5.240;2023-01-29T13:02:30;102330.0;;;6.29;69.19
50652;BME280;66928;52.086;5.240;2023-01-29T13:05:54;102327.0;;;6.26;70.03
50652;BME280;66928;52.086;5.240;2023-01-29T13:07:35;102309.0;;;6.36;69.38
50652;BME280;66928;52.086;5.240;2023-01-29T13:09:19;102302.0;;;5.99;70.16
50652;BME280;66928;52.086;5.240;2023-01-29T13:11:06;102294.0;;;6.19;69.97
50652;BME280;66928;52.086;5.240;2023-01-29T13:12:53;102275.0;;;6.12;70.05
50652;BME280;66928;52.086;5.240;2023-01-29T13:16:25;102277.0;;;6.25;69.86
50652;BME280;66928;52.086;5.240;2023-01-29T13:18:22;102272.0;;;6.44;69.36
50652;BME280;66928;52.086;5.240;2023-01-29T13:20:57;102265.0;;;6.23;70.02
50652;BME280;66928;52.086;5.240;2023-01-29T13:22:37;102261.0;;;6.4;69.56
50652;BME280;66928;52.086;5.240;2023-01-29T13:24:18;102253.0;;;6.2;70.16
50652;BME280;66928;52.086;5.240;2023-01-29T13:25:56;102252.0;;;6.36;70.14
50652;BME280;66928;52.086;5.240;2023-01-29T13:27:34;102255.0;;;6.48;69.81
50652;BME280;66928;52.086;5.240;2023-01-29T13:31:32;102246.0;;;6.36;69.99
50652;BME280;66928;52.086;5.240;2023-01-29T13:33:19;102251.0;;;6.45;69.86
50652;BME280;66928;52.086;5.240;2023-01-29T13:35:01;102248.0;;;6.35;70.25
50652;BME280;66928;52.086;5.240;2023-01-29T13:36:41;102247.0;;;6.49;69.91
50652;BME280;66928;52.086;5.240;2023-01-29T13:38:22;102239.0;;;6.57;69.83
50652;BME280;66928;52.086;5.240;2023-01-29T13:40:04;102245.0;;;6.62;69.8
50652;BME280;66928;52.086;5.240;2023-01-29T13:43:21;102242.0;;;6.35;70.36
50652;BME280;66928;52.086;5.240;2023-01-29T13:45:00;102241.0;;;6.54;69.75
50652;BME280;66928;52.086;5.240;2023-01-29T13:46:40;102236.0;;;6.3;70.22
50652;BME280;66928;52.086;5.240;2023-01-29T13:48:22;102233.0;;;6.56;69.94
50652;BME280;66928;52.086;5.240;2023-01-29T13:51:42;102220.0;;;6.48;69.89
50652;BME280;66928;52.086;5.240;2023-01-29T13:53:21;102222.0;;;6.61;69.69
50652;BME280;66928;52.086;5.240;2023-01-29T13:55:02;102215.0;;;6.49;69.69
50652;BME280;66928;52.086;5.240;2023-01-29T13:56:44;102220.0;;;6.65;69.55
50652;BME280;66928;52.086;5.240;2023-01-29T14:00:49;102223.0;;;6.54;69.8
50652;BME280;66928;52.086;5.240;2023-01-29T14:02:27;102219.0;;;6.55;69.72
50652;BME280;66928;52.086;5.240;2023-01-29T14:04:21;102224.0;;;6.59;69.83
50652;BME280;66928;52.086;5.240;2023-01-29T14:06:00;102216.0;;;6.47;69.89
50652;BME280;66928;52.086;5.240;2023-01-29T14:07:47;102220.0;;;6.53;69.67
50652;BME280;66928;52.086;5.240;2023-01-29T14:10:25;102219.0;;;6.52;69.8
50652;BME280;66928;52.086;5.240;2023-01-29T14:12:06;102205.0;;;6.38;70.13
50652;BME280;66928;52.086;5.240;2023-01-29T14:14:48;102208.0;;;6.6;69.69
50652;BME280;66928;52.086;5.240;2023-01-29T14:16:37;102210.0;;;6.72;69.38
50652;BME280;66928;52.086;5.240;2023-01-29T14:18:17;102209.0;;;6.64;69.72
50652;BME280;66928;52.086;5.240;2023-01-29T14:20:00;102208.0;;;6.69;69.45
50652;BME280;66928;52.086;5.240;2023-01-29T14:23:23;102209.0;;;6.72;69.19
50652;BME280;66928;52.086;5.240;2023-01-29T14:25:04;102209.0;;;6.76;69.39
50652;BME280;66928;52.086;5.240;2023-01-29T14:26:43;102206.0;;;6.72;69.31
50652;BME280;66928;52.086;5.240;2023-01-29T14:28:25;102205.0;;;6.61;69.77
50652;BME280;66928;52.086;5.240;2023-01-29T14:31:48;102203.0;;;6.56;69.77
50652;BME280;66928;52.086;5.240;2023-01-29T14:33:34;102200.0;;;6.66;69.62
50652;BME280;66928;52.086;5.240;2023-01-29T14:35:17;102197.0;;;6.82;69.38
50652;BME280;66928;52.086;5.240;2023-01-29T14:36:59;102205.0;;;6.75;69.5
50652;BME280;66928;52.086;5.240;2023-01-29T14:38:37;102201.0;;;6.59;70.06
50652;BME280;66928;52.086;5.240;2023-01-29T14:42:00;102203.0;;;6.55;70.16
50652;BME280;66928;52.086;5.240;2023-01-29T14:43:40;102194.0;;;6.76;69.88
50652;BME280;66928;52.086;5.240;2023-01-29T14:45:23;102193.0;;;6.48;70.61
50652;BME280;66928;52.086;5.240;2023-01-29T14:47:04;102192.0;;;6.81;69.73
50652;BME280;66928;52.086;5.240;2023-01-29T14:50:41;102185.0;;;6.53;70.27
50652;BME280;66928;52.086;5.240;2023-01-29T14:53:13;102187.0;;;6.51;70.99
50652;BME280;66928;52.086;5.240;2023-01-29T14:56:35;102183.0;;;6.56;71.12
50652;BME280;66928;52.086;5.240;2023-01-29T14:58:15;102182.0;;;6.6;71.45
50652;BME280;66928;52.086;5.240;2023-01-29T14:59:56;102169.0;;;6.61;71.2
50652;BME280;66928;52.086;5.240;2023-01-29T15:01:37;102166.0;;;6.53;71.05
50652;BME280;66928;52.086;5.240;2023-01-29T15:04:59;102169.0;;;6.76;70.91
50652;BME280;66928;52.086;5.240;2023-01-29T15:06:42;102161.0;;;6.7;71.19
50652;BME280;66928;52.086;5.240;2023-01-29T15:08:26;102159.0;;;6.67;71.11
50652;BME280;66928;52.086;5.240;2023-01-29T15:10:15;102159.0;;;6.66;71.16
50652;BME280;66928;52.086;5.240;2023-01-29T15:13:44;102160.0;;;6.83;70.88
50652;BME280;66928;52.086;5.240;2023-01-29T15:15:30;102160.0;;;6.78;70.86
50652;BME280;66928;52.086;5.240;2023-01-29T15:17:22;102153.0;;;6.6;71.37
50652;BME280;66928;52.086;5.240;2023-01-29T15:19:11;102147.0;;;6.54;72.0
50652;BME280;66928;52.086;5.240;2023-01-29T15:21:00;102149.0;;;6.59;71.69
50652;BME280;66928;52.086;5.240;2023-01-29T15:22:41;102150.0;;;6.58;71.94
50652;BME280;66928;52.086;5.240;2023-01-29T15:25:56;102152.0;;;6.63;71.83
50652;BME280;66928;52.086;5.240;2023-01-29T15:27:34;102157.0;;;6.94;71.08
50652;BME280;66928;52.086;5.240;2023-01-29T15:29:21;102146.0;;;6.83;71.09
50652;BME280;66928;52.086;5.240;2023-01-29T15:31:00;102151.0;;;6.73;71.7
50652;BME280;66928;52.086;5.240;2023-01-29T15:34:15;102143.0;;;6.85;71.22
50652;BME280;66928;52.086;5.240;2023-01-29T15:35:56;102145.0;;;6.72;71.66
50652;BME280;66928;52.086;5.240;2023-01-29T15:37:34;102139.0;;;6.81;71.33
50652;BME280;66928;52.086;5.240;2023-01-29T15:39:14;102139.0;;;6.79;71.59
50652;BME280;66928;52.086;5.240;2023-01-29T15:42:42;102139.0;;;6.66;71.72
50652;BME280;66928;52.086;5.240;2023-01-29T15:44:21;102130.0;;;6.79;71.44
50652;BME280;66928;52.086;5.240;2023-01-29T15:46:01;102130.0;;;7.0;70.81
50652;BME280;66928;52.086;5.240;2023-01-29T15:47:40;102125.0;;;6.76;71.42
50652;BME280;66928;52.086;5.240;2023-01-29T15:51:00;102132.0;;;6.79;71.44
50652;BME280;66928;52.086;5.240;2023-01-29T15:52:38;102125.0;;;6.66;71.52
50652;BME280;66928;52.086;5.240;2023-01-29T15:54:15;102124.0;;;6.62;72.0
50652;BME280;66928;52.086;5.240;2023-01-29T15:57:33;102118.0;;;6.43;72.47
50652;BME280;66928;52.086;5.240;2023-01-29T15:59:15;102124.0;;;6.61;72.55
50652;BME280;66928;52.086;5.240;2023-01-29T16:00:55;102126.0;;;6.64;72.11
50652;BME280;66928;52.086;5.240;2023-01-29T16:02:37;102125.0;;;6.54;72.22
50652;BME280;66928;52.086;5.240;2023-01-29T16:04:20;102124.0;;;6.35;72.69
50652;BME280;66928;52.086;5.240;2023-01-29T16:07:36;102126.0;;;6.37;72.61
50652;BME280;66928;52.086;5.240;2023-01-29T16:09:16;102125.0;;;6.41;72.64
50652;BME280;66928;52.086;5.240;2023-01-29T16:10:57;102127.0;;;6.35;72.91
50652;BME280;66928;52.086;5.240;2023-01-29T16:14:12;102130.0;;;6.32;73.23
50652;BME280;66928;52.086;5.240;2023-01-29T16:15:54;102140.0;;;6.34;73.16
50652;BME280;66928;52.086;5.240;2023-01-29T16:17:39;102132.0;;;6.29;73.39
50652;BME280;66928;52.086;5.240;2023-01-29T16:19:21;102130.0;;;6.33;73.72
50652;BME280;66928;52.086;5.240;2023-01-29T16:21:01;102127.0;;;6.41;73.27
50652;BME280;66928;52.086;5.240;2023-01-29T16:24:21;102126.0;;;6.32;73.69
50652;BME280;66928;52.086;5.240;2023-01-29T16:26:02;102137.0;;;6.24;74.28
50652;BME280;66928;52.086;5.240;2023-01-29T16:27:42;102138.0;;;6.4;73.94
50652;BME280;66928;52.086;5.240;2023-01-29T16:31:04;102138.0;;;6.48;73.99
50652;BME280;66928;52.086;5.240;2023-01-29T16:32:41;102142.0;;;6.54;73.58
50652;BME280;66928;52.086;5.240;2023-01-29T16:34:23;102133.0;;;6.36;73.83
50652;BME280;66928;52.086;5.240;2023-01-29T16:36:11;102136.0;;;6.29;74.3
50652;BME280;66928;52.086;5.240;2023-01-29T16:37:55;102131.0;;;6.14;74.58
50652;BME280;66928;52.086;5.240;2023-01-29T16:41:28;102123.0;;;6.02;75.56
50652;BME280;66928;52.086;5.240;2023-01-29T16:44:30;102121.0;;;6.04;75.42
50652;BME280;66928;52.086;5.240;2023-01-29T16:46:19;102117.0;;;6.01;75.48
50652;BME280;66928;52.086;5.240;2023-01-29T16:49:53;102115.0;;;5.98;75.89
50652;BME280;66928;52.086;5.240;2023-01-29T16:51:36;102113.0;;;5.89;76.59
50652;BME280;66928;52.086;5.240;2023-01-29T16:53:18;102115.0;;;5.84;76.87
50652;BME280;66928;52.086;5.240;2023-01-29T16:55:07;102110.0;;;6.06;76.47
50652;BME280;66928;52.086;5.240;2023-01-29T16:56:52;102109.0;;;5.98;76.97
50652;BME280;66928;52.086;5.240;2023-01-29T17:00:19;102103.0;;;6.06;76.73
50652;BME280;66928;52.086;5.240;2023-01-29T17:01:58;102101.0;;;5.99;76.91
50652;BME280;66928;52.086;5.240;2023-01-29T17:03:36;102099.0;;;6.09;76.48
50652;BME280;66928;52.086;5.240;2023-01-29T17:05:20;102095.0;;;6.14;75.94
50652;BME280;66928;52.086;5.240;2023-01-29T17:08:40;102100.0;;;5.94;76.17
50652;BME280;66928;52.086;5.240;2023-01-29T17:10:19;102096.0;;;5.99;76.08
50652;BME280;66928;52.086;5.240;2023-01-29T17:11:59;102097.0;;;5.88;76.08
50652;BME280;66928;52.086;5.240;2023-01-29T17:13:38;102097.0;;;5.96;75.91
50652;BME280;66928;52.086;5.240;2023-01-29T17:17:14;102101.0;;;6.07;75.5
50652;BME280;66928;52.086;5.240;2023-01-29T17:18:51;102094.0;;;6.08;75.49
50652;BME280;66928;52.086;5.240;2023-01-29T17:20:29;102092.0;;;6.0;75.33
50652;BME280;66928;52.086;5.240;2023-01-29T17:22:13;102082.0;;;6.15;74.72
50652;BME280;66928;52.086;5.240;2023-01-29T17:23:50;102081.0;;;6.23;74.47
50652;BME280;66928;52.086;5.240;2023-01-29T17:27:04;102080.0;;;6.17;74.39
50652;BME280;66928;52.086;5.240;2023-01-29T17:28:41;102078.0;;;6.12;74.02
50652;BME280;66928;52.086;5.240;2023-01-29T17:30:20;102078.0;;;6.04;74.36
50652;BME280;66928;52.086;5.240;2023-01-29T17:33:40;102078.0;;;6.14;73.94
50652;BME280;66928;52.086;5.240;2023-01-29T17:35:17;102083.0;;;6.01;73.98
50652;BME280;66928;52.086;5.240;2023-01-29T17:36:56;102076.0;;;6.19;73.16